tititudorancea.com
Station Historical Data
Daily Summary for Nil La, TWC- Units:  English    Metric   Both
« Previous Day
Next Day »
Daily Weekly Monthly Yearly Custom
  High: Low: Average:
Temperature: TemperatureF °F 38.4 °F 49.4 °F
Dew Point: DewpointF °F 36.6 °F 42.7 °F
Humidity: Humidity % 56 % 79 %
Wind Speed: WindSpeedMPH mph 0.0 mph 4.6 mph
Wind Gust: WindSpeedGustMPH mph - -
Wind:- - East
Pressure: PressureIn in 30.23 in -
Precipitation: 0.01 in    
Historical Graphs
 
 
Ararat weather Find more about Weather in Ararat, AU


 



 


Tabular Data for Nil La, TWC-
Time Temperature Dew Point Pressure Wind Wind Speed Wind Gust Humidity Rainfall Rate (Hourly)
TemperatureF °F DewpointF °F PressureIn in Calm     Humidity % HourlyPrecipIn in
00:04 38.5 °F 36.7 °F 30.30 in Calm     93 % 0.00 in
00:09 38.4 °F 36.6 °F 30.30 in SE 1.2 mph   93 % 0.00 in
00:14 38.5 °F 36.9 °F 30.30 in SE 1.2 mph   94 % 0.00 in
00:19 38.9 °F 37.3 °F 30.30 in Calm     94 % 0.00 in
00:24 39.2 °F 37.6 °F 30.30 in SE 2.3 mph 2.3 mph 94 % 0.00 in
00:29 39.6 °F 38.0 °F 30.29 in SE 2.3 mph 2.3 mph 94 % 0.00 in
00:34 40.0 °F 38.4 °F 30.29 in SE 2.0 mph 2.0 mph 94 % 0.00 in
00:39 40.3 °F 38.7 °F 30.29 in SE 2.3 mph 2.3 mph 94 % 0.00 in
00:44 40.6 °F 39.0 °F 30.29 in SE 1.2 mph 1.2 mph 94 % 0.00 in
00:49 40.9 °F 39.3 °F 30.29 in SE 2.3 mph 2.3 mph 94 % 0.00 in
00:54 40.9 °F 39.3 °F 30.29 in SE 3.5 mph 3.5 mph 94 % 0.00 in
00:56 40.8 °F 39.2 °F 30.29 in SE 3.5 mph 3.5 mph 94 % 0.00 in
01:01 40.8 °F 39.2 °F 30.29 in SE 3.5 mph 3.5 mph 94 % 0.00 in
01:06 40.7 °F 38.8 °F 30.29 in SE 4.6 mph 4.6 mph 93 % 0.00 in
01:11 40.7 °F 39.1 °F 30.29 in SE 4.6 mph 4.6 mph 94 % 0.00 in
01:16 40.9 °F 39.3 °F 30.29 in SSE 3.5 mph 3.5 mph 94 % 0.00 in
01:21 41.2 °F 39.6 °F 30.29 in SE 3.5 mph 3.5 mph 94 % 0.00 in
01:26 41.5 °F 39.9 °F 30.29 in SE 3.5 mph 3.5 mph 94 % 0.00 in
01:31 41.8 °F 40.2 °F 30.30 in SE 3.5 mph 3.5 mph 94 % 0.00 in
01:36 42.0 °F 40.1 °F 30.30 in SE 2.3 mph 2.3 mph 93 % 0.00 in
01:41 41.9 °F 40.0 °F 30.30 in SE 2.3 mph 2.3 mph 93 % 0.00 in
01:46 41.9 °F 40.0 °F 30.30 in Calm     93 % 0.00 in
01:51 41.7 °F 39.5 °F 30.30 in SE 2.3 mph 2.3 mph 92 % 0.00 in
01:56 41.4 °F 39.3 °F 30.30 in SE 2.0 mph 2.0 mph 92 % 0.00 in
02:01 41.4 °F 39.3 °F 30.30 in SE 2.3 mph 2.3 mph 92 % 0.00 in
02:06 41.5 °F 39.6 °F 30.30 in SE 4.0 mph 4.0 mph 93 % 0.00 in
02:11 42.2 °F 40.3 °F 30.30 in SE 3.5 mph 3.5 mph 93 % 0.00 in
02:16 43.2 °F 41.6 °F 30.30 in SE 3.5 mph 3.5 mph 94 % 0.00 in
02:21 43.9 °F 41.7 °F 30.30 in SE 3.5 mph 3.5 mph 92 % 0.00 in
02:26 44.1 °F 41.6 °F 30.30 in SE 1.2 mph 1.2 mph 91 % 0.00 in
02:31 44.0 °F 41.3 °F 30.30 in Calm     90 % 0.00 in
02:36 43.1 °F 39.8 °F 30.30 in SE 2.3 mph 2.3 mph 88 % 0.00 in
02:41 42.0 °F 38.7 °F 30.29 in SE 2.3 mph 2.3 mph 88 % 0.00 in
02:46 41.4 °F 38.4 °F 30.30 in SE 2.3 mph 2.3 mph 89 % 0.00 in
02:51 40.9 °F 37.9 °F 30.30 in SE 1.2 mph 1.2 mph 89 % 0.00 in
02:56 40.7 °F 38.0 °F 30.30 in Calm     90 % 0.00 in
03:01 40.5 °F 37.8 °F 30.30 in Calm     90 % 0.00 in
03:06 40.4 °F 37.7 °F 30.30 in Calm     90 % 0.00 in
03:11 40.3 °F 37.6 °F 30.30 in Calm     90 % 0.00 in
03:16 40.3 °F 37.9 °F 30.29 in Calm     91 % 0.00 in
03:21 40.2 °F 37.8 °F 30.29 in SE 3.5 mph 3.5 mph 91 % 0.00 in
03:26 40.2 °F 37.8 °F 30.29 in SE 2.3 mph 2.3 mph 91 % 0.00 in
03:31 40.2 °F 37.8 °F 30.29 in SE 3.5 mph 3.5 mph 91 % 0.00 in
03:36 40.2 °F 37.8 °F 30.28 in SSE 3.5 mph 3.5 mph 91 % 0.00 in
03:41 40.2 °F 38.1 °F 30.28 in SE 3.5 mph 3.5 mph 92 % 0.00 in
03:46 40.1 °F 38.0 °F 30.28 in SE 2.3 mph 2.3 mph 92 % 0.00 in
03:51 40.2 °F 38.1 °F 30.28 in SE 1.0 mph   92 % 0.00 in
03:56 40.4 °F 38.3 °F 30.28 in SE 1.2 mph 1.2 mph 92 % 0.00 in
04:01 40.4 °F 38.3 °F 30.28 in Calm     92 % 0.00 in
04:06 40.3 °F 38.2 °F 30.28 in Calm     92 % 0.00 in
04:07 40.2 °F 38.1 °F 30.28 in Calm     92 % 0.00 in
04:12 40.1 °F 38.0 °F 30.28 in SE 2.3 mph 2.3 mph 92 % 0.00 in
04:17 40.1 °F 38.0 °F 30.28 in SE 2.3 mph 2.3 mph 92 % 0.00 in
04:22 40.1 °F 38.0 °F 30.27 in SSE 2.3 mph 2.3 mph 92 % 0.00 in
04:27 40.2 °F 38.3 °F 30.27 in SE 5.0 mph 5.0 mph 93 % 0.00 in
04:32 40.7 °F 39.1 °F 30.28 in SSE 5.8 mph 5.8 mph 94 % 0.00 in
04:37 41.3 °F 39.4 °F 30.28 in SE 5.8 mph 5.8 mph 93 % 0.00 in
04:42 41.5 °F 39.6 °F 30.28 in SE 3.5 mph 3.5 mph 93 % 0.00 in
04:47 41.5 °F 39.6 °F 30.28 in SSE 3.5 mph 3.5 mph 93 % 0.00 in
04:52 41.6 °F 39.7 °F 30.28 in SE 4.6 mph 4.6 mph 93 % 0.00 in
05:02 41.9 °F 40.0 °F 30.28 in SSE 3.5 mph 3.5 mph 93 % 0.00 in
05:07 42.0 °F 40.1 °F 30.28 in SE 4.6 mph 4.6 mph 93 % 0.00 in
05:12 42.2 °F 40.6 °F 30.28 in SE 3.5 mph 3.5 mph 94 % 0.00 in
05:17 42.3 °F 40.4 °F 30.28 in SE 3.5 mph 3.5 mph 93 % 0.00 in
05:22 42.3 °F 40.4 °F 30.28 in SE 3.5 mph 3.5 mph 93 % 0.00 in
05:27 42.1 °F 40.2 °F 30.28 in SE 2.3 mph 2.3 mph 93 % 0.00 in
05:32 41.8 °F 39.6 °F 30.28 in SE 2.3 mph 2.3 mph 92 % 0.00 in
05:37 41.4 °F 39.3 °F 30.28 in SE 2.3 mph 2.3 mph 92 % 0.00 in
05:42 41.0 °F 38.9 °F 30.28 in SSE 2.3 mph 2.3 mph 92 % 0.00 in
05:47 40.8 °F 38.9 °F 30.29 in Calm     93 % 0.00 in
05:52 40.8 °F 38.9 °F 30.29 in Calm     93 % 0.00 in
05:57 40.8 °F 38.9 °F 30.29 in Calm     93 % 0.00 in
06:02 40.8 °F 38.9 °F 30.29 in Calm     93 % 0.00 in
06:07 40.8 °F 38.9 °F 30.30 in SE 1.2 mph 1.2 mph 93 % 0.00 in
06:12 40.9 °F 39.3 °F 30.30 in SE 2.3 mph 2.3 mph 94 % 0.00 in
06:17 41.1 °F 39.5 °F 30.29 in SE 4.0 mph 4.0 mph 94 % 0.00 in
06:22 41.4 °F 39.8 °F 30.30 in SE 4.6 mph 4.6 mph 94 % 0.00 in
06:27 42.0 °F 40.7 °F 30.30 in SE 4.6 mph 4.6 mph 95 % 0.00 in
06:32 42.4 °F 41.1 °F 30.29 in SE 4.6 mph 4.6 mph 95 % 0.00 in
06:37 42.6 °F 41.0 °F 30.30 in SE 2.3 mph 2.3 mph 94 % 0.00 in
06:42 42.3 °F 40.4 °F 30.30 in SE 2.3 mph 2.3 mph 93 % 0.00 in
06:47 42.0 °F 40.1 °F 30.30 in SE 1.2 mph   93 % 0.00 in
06:52 41.9 °F 40.3 °F 30.31 in Calm     94 % 0.00 in
06:57 41.9 °F 40.3 °F 30.31 in Calm     94 % 0.00 in
07:02 41.9 °F 40.3 °F 30.31 in SE 3.5 mph 3.5 mph 94 % 0.00 in
07:07 41.9 °F 40.3 °F 30.31 in SE 2.3 mph 2.3 mph 94 % 0.00 in
07:12 42.1 °F 40.5 °F 30.31 in SE 3.5 mph 3.5 mph 94 % 0.00 in
07:17 42.2 °F 40.6 °F 30.31 in SSE 3.5 mph 3.5 mph 94 % 0.00 in
07:22 41.9 °F 40.0 °F 30.31 in SE 4.6 mph 4.6 mph 93 % 0.01 in
07:27 41.2 °F 39.3 °F 30.31 in SE 3.5 mph 3.5 mph 93 % 0.01 in
07:32 40.5 °F 38.6 °F 30.30 in SE 2.3 mph 2.3 mph 93 % 0.01 in
07:37 40.1 °F 38.5 °F 30.31 in SE 4.6 mph 4.6 mph 94 % 0.01 in
07:42 40.3 °F 38.7 °F 30.31 in SE 4.0 mph 4.0 mph 94 % 0.01 in
07:47 40.5 °F 38.9 °F 30.31 in SE 5.8 mph 5.8 mph 94 % 0.01 in
07:52 40.9 °F 39.6 °F 30.31 in SE 5.0 mph 5.0 mph 95 % 0.01 in
07:57 41.3 °F 40.0 °F 30.31 in SE 4.6 mph 4.6 mph 95 % 0.01 in
08:02 41.6 °F 40.3 °F 30.31 in SE 2.3 mph 2.3 mph 95 % 0.01 in
08:07 42.1 °F 40.8 °F 30.31 in SE 2.3 mph 2.3 mph 95 % 0.01 in
08:12 42.5 °F 41.2 °F 30.31 in SE 4.0 mph 4.0 mph 95 % 0.01 in
08:17 43.0 °F 41.7 °F 30.31 in SE 3.5 mph 3.5 mph 95 % 0.01 in
08:18 43.1 °F 41.8 °F 30.31 in SE 3.5 mph 3.5 mph 95 % 0.01 in
08:23 43.6 °F 42.3 °F 30.32 in SE 3.5 mph 3.5 mph 95 % 0.00 in
08:28 44.2 °F 42.9 °F 30.32 in SE 3.5 mph 3.5 mph 95 % 0.00 in
08:33 44.7 °F 43.4 °F 30.32 in SE 4.6 mph 4.6 mph 95 % 0.00 in
08:38 45.1 °F 43.8 °F 30.32 in SE 5.8 mph 5.8 mph 95 % 0.00 in
08:43 45.3 °F 44.0 °F 30.32 in SE 6.0 mph 6.0 mph 95 % 0.00 in
08:48 45.6 °F 44.3 °F 30.32 in SE 5.8 mph 5.8 mph 95 % 0.00 in
08:53 46.0 °F 44.6 °F 30.32 in SE 4.6 mph 4.6 mph 95 % 0.00 in
08:58 46.5 °F 44.9 °F 30.32 in SE 4.6 mph 4.6 mph 94 % 0.00 in
09:03 47.1 °F 45.5 °F 30.32 in SE 5.8 mph 5.8 mph 94 % 0.00 in
09:08 47.8 °F 46.2 °F 30.32 in SE 6.9 mph 6.9 mph 94 % 0.00 in
09:13 48.4 °F 46.5 °F 30.32 in SE 4.6 mph 4.6 mph 93 % 0.00 in
09:18 49.2 °F 47.3 °F 30.32 in SSE 4.6 mph 4.6 mph 93 % 0.00 in
09:23 49.9 °F 47.7 °F 30.32 in SE 4.6 mph 4.6 mph 92 % 0.00 in
09:28 50.7 °F 48.2 °F 30.32 in SSE 5.0 mph 5.0 mph 91 % 0.00 in
09:33 51.5 °F 48.7 °F 30.32 in SE 6.9 mph 6.9 mph 90 % 0.00 in
09:38 52.3 °F 48.9 °F 30.32 in ESE 5.8 mph 5.8 mph 88 % 0.00 in
09:43 53.0 °F 48.9 °F 30.32 in ESE 9.0 mph 9.0 mph 86 % 0.00 in
09:48 53.3 °F 48.6 °F 30.31 in ESE 4.6 mph 4.6 mph 84 % 0.00 in
09:53 53.6 °F 48.6 °F 30.32 in ESE 4.6 mph 4.6 mph 83 % 0.00 in
09:58 53.9 °F 48.5 °F 30.31 in ESE 8.0 mph 8.0 mph 82 % 0.00 in
10:03 53.9 °F 48.2 °F 30.32 in East 7.0 mph 7.0 mph 81 % 0.00 in
10:08 54.0 °F 48.3 °F 30.32 in ENE 6.0 mph 6.0 mph 81 % 0.00 in
10:13 54.3 °F 48.3 °F 30.32 in ENE 5.8 mph 5.8 mph 80 % 0.00 in
10:18 54.6 °F 48.6 °F 30.32 in ENE 6.9 mph 6.9 mph 80 % 0.00 in
10:23 54.9 °F 48.5 °F 30.31 in ENE 5.8 mph 5.8 mph 79 % 0.00 in
10:28 55.4 °F 49.0 °F 30.32 in ENE 5.8 mph 5.8 mph 79 % 0.00 in
10:33 55.7 °F 47.9 °F 30.32 in NE 10.4 mph 10.4 mph 75 % 0.00 in
10:38 56.1 °F 47.6 °F 30.32 in NNE 10.4 mph 10.4 mph 73 % 0.00 in
10:43 56.2 °F 47.3 °F 30.32 in NNE 8.1 mph 8.1 mph 72 % 0.00 in
10:48 56.3 °F 47.4 °F 30.32 in NNE 10.4 mph 10.4 mph 72 % 0.00 in
10:53 56.5 °F 47.2 °F 30.31 in North 10.4 mph 10.4 mph 71 % 0.00 in
10:58 56.7 °F 47.0 °F 30.31 in North 11.5 mph 11.5 mph 70 % 0.00 in
10:59 56.7 °F 46.6 °F 30.31 in North 11.5 mph 11.5 mph 69 % 0.00 in
11:04 56.9 °F 46.8 °F 30.31 in North 9.2 mph 9.2 mph 69 % 0.00 in
11:06 57.0 °F 46.5 °F 30.31 in North 11.5 mph 11.5 mph 68 % 0.00 in
11:11 57.2 °F 46.3 °F 30.31 in North 11.5 mph 11.5 mph 67 % 0.00 in
11:16 57.2 °F 46.3 °F 30.31 in North 11.5 mph 11.5 mph 67 % 0.00 in
11:21 57.2 °F 46.3 °F 30.31 in North 8.1 mph 8.1 mph 67 % 0.00 in
11:26 57.1 °F 46.2 °F 30.31 in North 9.2 mph 9.2 mph 67 % 0.00 in
11:31 57.1 °F 45.8 °F 30.30 in North 9.2 mph 9.2 mph 66 % 0.00 in
11:36 56.9 °F 45.7 °F 30.30 in North 10.0 mph 10.0 mph 66 % 0.00 in
11:41 56.8 °F 45.6 °F 30.30 in North 6.9 mph 6.9 mph 66 % 0.00 in
11:46 57.0 °F 46.1 °F 30.30 in North 8.1 mph 8.1 mph 67 % 0.00 in
11:51 57.3 °F 45.6 °F 30.29 in North 8.1 mph 8.1 mph 65 % 0.00 in
11:56 57.5 °F 45.0 °F 30.29 in North 10.4 mph 10.4 mph 63 % 0.00 in
12:01 57.9 °F 45.4 °F 30.28 in North 7.0 mph 7.0 mph 63 % 0.00 in
12:06 58.2 °F 45.2 °F 30.28 in North 4.6 mph 4.6 mph 62 % 0.00 in
12:11 58.2 °F 44.8 °F 30.28 in North 9.2 mph 9.2 mph 61 % 0.00 in
12:16 58.4 °F 45.0 °F 30.27 in North 6.9 mph 6.9 mph 61 % 0.00 in
12:21 58.9 °F 45.5 °F 30.27 in North 4.6 mph 4.6 mph 61 % 0.00 in
12:27 59.5 °F 45.6 °F 30.27 in North 5.0 mph 5.0 mph 60 % 0.00 in
12:32 59.6 °F 45.2 °F 30.27 in North 8.1 mph 8.1 mph 59 % 0.00 in
12:37 59.5 °F 44.7 °F 30.26 in North 6.9 mph 6.9 mph 58 % 0.00 in
12:41 59.4 °F 44.6 °F 30.26 in North 8.1 mph 8.1 mph 58 % 0.00 in
12:46 59.4 °F 44.2 °F 30.26 in North 11.5 mph 11.5 mph 57 % 0.00 in
12:51 59.4 °F 43.7 °F 30.26 in North 10.4 mph 10.4 mph 56 % 0.00 in
12:56 59.2 °F 44.0 °F 30.26 in North 8.1 mph 8.1 mph 57 % 0.00 in
13:01 58.9 °F 44.6 °F 30.26 in North 8.1 mph 8.1 mph 59 % 0.00 in
13:06 58.9 °F 44.6 °F 30.26 in North 8.1 mph 8.1 mph 59 % 0.00 in
13:11 58.9 °F 45.5 °F 30.25 in North 3.5 mph 3.5 mph 61 % 0.00 in
13:16 59.3 °F 45.0 °F 30.25 in North 9.2 mph 9.2 mph 59 % 0.00 in
13:21 59.1 °F 45.2 °F 30.25 in North 6.9 mph 6.9 mph 60 % 0.00 in
13:26 59.2 °F 45.8 °F 30.25 in North 9.2 mph 9.2 mph 61 % 0.00 in
13:31 59.3 °F 46.3 °F 30.25 in North 11.5 mph 11.5 mph 62 % 0.00 in
13:36 59.6 °F 46.6 °F 30.25 in North 8.1 mph 8.1 mph 62 % 0.00 in
13:41 59.8 °F 46.3 °F 30.25 in North 9.2 mph 9.2 mph 61 % 0.00 in
13:46 60.1 °F 46.2 °F 30.25 in North 10.4 mph 10.4 mph 60 % 0.00 in
13:51 60.1 °F 46.2 °F 30.24 in North 9.0 mph 9.0 mph 60 % 0.00 in
13:56 60.0 °F 46.1 °F 30.24 in North 11.5 mph 11.5 mph 60 % 0.00 in
14:02 60.0 °F 45.6 °F 30.24 in North 10.4 mph 10.4 mph 59 % 0.00 in
14:07 59.7 °F 45.8 °F 30.24 in North 6.9 mph 6.9 mph 60 % 0.00 in
14:12 59.7 °F 46.2 °F 30.24 in North 10.0 mph 10.0 mph 61 % 0.00 in
14:17 59.6 °F 46.1 °F 30.24 in North 11.5 mph 11.5 mph 61 % 0.00 in
14:22 59.5 °F 45.6 °F 30.24 in North 11.5 mph 11.5 mph 60 % 0.00 in
14:27 59.6 °F 46.6 °F 30.24 in NNE 9.2 mph 9.2 mph 62 % 0.00 in
14:32 59.7 °F 46.2 °F 30.24 in NNE 9.2 mph 9.2 mph 61 % 0.00 in
14:37 59.9 °F 46.0 °F 30.24 in North 10.4 mph 10.4 mph 60 % 0.00 in
14:42 59.8 °F 46.3 °F 30.24 in North 8.0 mph 8.0 mph 61 % 0.00 in
14:47 59.8 °F 46.7 °F 30.24 in North 8.1 mph 8.1 mph 62 % 0.00 in
14:52 59.6 °F 46.6 °F 30.24 in North 9.2 mph 9.2 mph 62 % 0.00 in
14:57 59.5 °F 46.9 °F 30.24 in North 6.0 mph 6.0 mph 63 % 0.00 in
15:02 59.5 °F 46.9 °F 30.24 in North 3.5 mph 3.5 mph 63 % 0.00 in
15:07 59.7 °F 46.7 °F 30.24 in North 10.4 mph 10.4 mph 62 % 0.00 in
15:12 59.8 °F 46.3 °F 30.24 in North 5.8 mph 5.8 mph 61 % 0.00 in
15:17 59.7 °F 46.7 °F 30.24 in North 6.9 mph 6.9 mph 62 % 0.00 in
15:22 59.9 °F 46.8 °F 30.24 in NNE 6.9 mph 6.9 mph 62 % 0.00 in
15:27 60.1 °F 47.0 °F 30.24 in NNE 6.9 mph 6.9 mph 62 % 0.00 in
15:32 60.1 °F 46.6 °F 30.24 in North 9.2 mph 9.2 mph 61 % 0.00 in
15:37 60.0 °F 46.9 °F 30.24 in NNE 5.0 mph 5.0 mph 62 % 0.00 in
15:42 60.1 °F 46.6 °F 30.24 in NNE 4.6 mph 4.6 mph 61 % 0.00 in
15:47 60.2 °F 46.7 °F 30.24 in NNE 8.1 mph 8.1 mph 61 % 0.00 in
15:52 60.2 °F 46.7 °F 30.24 in NNE 5.0 mph 5.0 mph 61 % 0.00 in
15:57 60.2 °F 46.3 °F 30.24 in NNE 8.1 mph 8.1 mph 60 % 0.00 in
16:02 60.2 °F 45.8 °F 30.24 in NNE 6.9 mph 6.9 mph 59 % 0.00 in
16:07 60.2 °F 45.8 °F 30.24 in NNE 4.6 mph 4.6 mph 59 % 0.00 in
16:12 59.9 °F 45.5 °F 30.24 in NNE 6.0 mph 6.0 mph 59 % 0.00 in
16:17 59.5 °F 45.6 °F 30.24 in NNE 4.6 mph 4.6 mph 60 % 0.00 in
16:22 59.2 °F 45.3 °F 30.24 in NNE 5.8 mph 5.8 mph 60 % 0.00 in
16:27 59.0 °F 45.6 °F 30.24 in NNE 3.5 mph 3.5 mph 61 % 0.00 in
16:32 58.6 °F 45.2 °F 30.24 in NNE 2.3 mph 2.3 mph 61 % 0.00 in
16:37 58.2 °F 45.2 °F 30.24 in NNE 3.5 mph 3.5 mph 62 % 0.00 in
16:42 57.7 °F 45.2 °F 30.24 in NNE 3.5 mph 3.5 mph 63 % 0.00 in
16:47 57.3 °F 45.2 °F 30.24 in NNE 4.0 mph 4.0 mph 64 % 0.00 in
16:52 57.0 °F 44.9 °F 30.24 in NNE 3.5 mph 3.5 mph 64 % 0.00 in
16:57 56.5 °F 44.9 °F 30.24 in NNE 3.5 mph 3.5 mph 65 % 0.00 in
17:02 56.2 °F 44.6 °F 30.24 in NNE 3.5 mph 3.5 mph 65 % 0.00 in
17:07 55.9 °F 44.7 °F 30.24 in NNE 3.5 mph 3.5 mph 66 % 0.00 in
17:12 55.6 °F 44.4 °F 30.24 in NNE 3.5 mph 3.5 mph 66 % 0.00 in
17:17 55.4 °F 44.6 °F 30.24 in NNE 3.5 mph 3.5 mph 67 % 0.00 in
17:22 55.2 °F 44.4 °F 30.24 in NNE 2.3 mph 2.3 mph 67 % 0.00 in
17:27 54.8 °F 44.4 °F 30.24 in Calm     68 % 0.00 in
17:32 54.4 °F 44.1 °F 30.24 in Calm     68 % 0.00 in
17:37 54.0 °F 44.1 °F 30.24 in Calm     69 % 0.00 in
17:42 53.5 °F 44.0 °F 30.24 in Calm     70 % 0.00 in
17:47 52.9 °F 43.7 °F 30.23 in Calm     71 % 0.00 in
17:52 52.5 °F 43.7 °F 30.23 in Calm     72 % 0.00 in
17:57 52.2 °F 43.8 °F 30.23 in Calm     73 % 0.00 in
18:02 52.0 °F 44.0 °F 30.24 in NNE 2.3 mph 2.3 mph 74 % 0.00 in
18:07 51.9 °F 43.9 °F 30.23 in NNE 1.2 mph 1.2 mph 74 % 0.00 in
18:12 51.9 °F 43.9 °F 30.24 in NNE 3.5 mph 3.5 mph 74 % 0.00 in
18:17 51.8 °F 43.8 °F 30.24 in NNE 3.5 mph 3.5 mph 74 % 0.00 in
18:22 51.6 °F 43.6 °F 30.24 in NNE 2.3 mph 2.3 mph 74 % 0.00 in
18:27 51.3 °F 43.6 °F 30.24 in NNE 2.3 mph 2.3 mph 75 % 0.00 in
18:32 51.3 °F 43.6 °F 30.24 in NNE 3.5 mph 3.5 mph 75 % 0.00 in
18:37 51.2 °F 43.5 °F 30.23 in NNE 3.5 mph 3.5 mph 75 % 0.00 in
18:42 51.4 °F 43.7 °F 30.23 in NNE 3.5 mph 3.5 mph 75 % 0.00 in
18:44 51.4 °F 43.7 °F 30.23 in NNE 3.5 mph 3.5 mph 75 % 0.00 in
18:49 51.6 °F 43.6 °F 30.24 in NNE 3.5 mph 3.5 mph 74 % 0.00 in
18:54 51.6 °F 43.2 °F 30.23 in NNE 3.5 mph 3.5 mph 73 % 0.00 in
18:59 51.7 °F 43.3 °F 30.23 in NNE 2.3 mph 2.3 mph 73 % 0.00 in
19:04 51.8 °F 43.4 °F 30.23 in NNE 3.5 mph 3.5 mph 73 % 0.00 in
19:09 51.9 °F 43.5 °F 30.23 in NNE 3.5 mph 3.5 mph 73 % 0.00 in
19:14 52.1 °F 43.3 °F 30.23 in NNE 3.5 mph 3.5 mph 72 % 0.00 in
19:19 52.1 °F 43.3 °F 30.23 in NNE 3.5 mph 3.5 mph 72 % 0.00 in
19:24 52.2 °F 43.1 °F 30.23 in NNE 3.5 mph 3.5 mph 71 % 0.00 in
19:29 52.2 °F 43.1 °F 30.24 in NNE 4.6 mph 4.6 mph 71 % 0.00 in
19:34 52.2 °F 43.1 °F 30.24 in NNE 3.5 mph 3.5 mph 71 % 0.00 in
19:39 52.0 °F 42.9 °F 30.23 in NNE 5.8 mph 5.8 mph 71 % 0.00 in
19:44 51.8 °F 42.7 °F 30.24 in NNE 3.5 mph 3.5 mph 71 % 0.00 in
19:49 51.6 °F 42.5 °F 30.24 in NNE 4.6 mph 4.6 mph 71 % 0.00 in
19:53 51.5 °F 42.4 °F 30.24 in NNE 5.8 mph 5.8 mph 71 % 0.00 in
19:58 51.4 °F 42.3 °F 30.24 in NNE 3.5 mph 3.5 mph 71 % 0.00 in
20:03 51.5 °F 42.4 °F 30.24 in NNE 4.6 mph 4.6 mph 71 % 0.00 in
20:08 51.5 °F 42.0 °F 30.24 in NNE 3.5 mph 3.5 mph 70 % 0.00 in
20:13 51.5 °F 42.0 °F 30.24 in NNE 3.5 mph 3.5 mph 70 % 0.00 in
Ararat Weather
Compliments of Weather Underground - 2.25 mb
Click here to send mail.


ABOUT

Live weather data from Ararat, Victoria, Australia, 3377
Data uploaded from Cumulus every 5 minutes to Weather Underground.
This site then downloads the raw data for formatting and display.
Metric and imperial data can be displayed. Graphs and historical data available.
Includes Sun and Moon times and rain image live from BOM.

Check out Ararat Weather on Facebook, Twitter and Google +

Help support ongoing costs by checking out the ads





Follow @AraratWeather